Ana Sayfa
METAR-TAF:

METAR-TAF

Havaalanları :

Auckland Havalimanı

Auckland, Yeni Zelanda

Enlem: 37-01S, Boylam: 174-48E, yükseklik: 7 m

Güncel hava durumu gözlemi

Rapor saat 14:00 UTC de 26 dakika önce yapıldı.
Rüzgar kuzeybatıdan 4 kt
Sıcaklık 9°C
Nem 93%
Basınç 1015 hPa
Görüş mesafesi 10 km veya daha fazla

METAR: NZAA 221400Z AUTO 32004KT 9999 FEW030/// 09/08 Q1015

Saat: 02:26 (14:26 UTC)

Tahmin

Rapor saat 11:10 UTC de 3 saat ve 16 dakika önce yapıldı.
Ayın 22'si saat 12 UTC'den ayın 23'si saat 12 UTC'ye kadar geçerli Tahmin
Rüzgar batıdan 8 kt
Görüş mesafesi 10 km veya daha fazla
3000 ft yükseklikte parçalı bulutlu
hafif sağanak yağmurlar
Geçici
ayın 22'si saat 20 UTC'den ayın 23'si saat 00 UTC'ye kadar
Görüş mesafesi: 6000 m
2000 ft yükseklikte az bulutlu, Yükselen kümülüs.
sağanak yağmurlar

TAF: NZAA 221110Z 2212/2312 27008KT 9999 -SHRA SCT030 TEMPO 2220/2300 6000 SHRA FEW020TCU

4.000'den fazla havaalanı için hava durumu gözlemleri ve tahminleri (METAR ve TAF raporları).

Kullanılabilir istasyonlar harita üzerinde sarı ve kırmızı noktalarla gösterilir.

İstasyonun adını görmek için fareyi noktanın üzerinde gezdirin.

Sonrasında hava gözlem ve tahminlerini görmek için tıklayın.

Haritayı değiştirmek için: yaklaştırmak için siyah artı işaretli yeşil düğmeye ve uzaklaştırmak için de eksi işaretli düğmeye hızla tıklayın; bitişik haritalar için yeşil okları kullanın.


METAR-TAF: